createdAt,value
2022-11-27T00:04:19.300Z,94.20
2022-11-27T00:09:18.057Z,94.20
2022-11-27T00:14:17.038Z,94.20
2022-11-27T00:19:16.137Z,94.30
2022-11-27T00:24:15.078Z,94.30
2022-11-27T00:29:14.125Z,94.30
2022-11-27T00:34:13.391Z,94.30
2022-11-27T00:39:12.083Z,94.30
2022-11-27T00:44:11.108Z,94.30
2022-11-27T00:49:10.175Z,94.30
2022-11-27T00:54:09.155Z,94.20
2022-11-27T00:59:07.906Z,94.30
2022-11-27T01:04:07.173Z,94.30
2022-11-27T01:09:06.071Z,94.30
2022-11-27T01:14:04.986Z,94.20
2022-11-27T01:19:03.986Z,94.30
2022-11-27T01:24:02.994Z,94.20
2022-11-27T01:29:02.131Z,94.20
2022-11-27T01:34:01.018Z,94.20
2022-11-27T01:39:00.102Z,94.20
2022-11-27T01:43:59.046Z,94.20
2022-11-27T01:48:58.087Z,94.10
2022-11-27T01:53:57.108Z,94.10
2022-11-27T01:58:55.978Z,94.10
2022-11-27T02:03:55.096Z,94.10
2022-11-27T02:08:54.077Z,94.10
2022-11-27T02:13:53.002Z,94.10
2022-11-27T02:18:51.998Z,94.10
2022-11-27T02:23:50.936Z,94.10
2022-11-27T02:28:50.146Z,94.10
2022-11-27T02:33:49.843Z,94.10
2022-11-27T02:38:48.995Z,94.10
2022-11-27T02:43:48.026Z,94.10
2022-11-27T02:48:47.030Z,94.10
2022-11-27T02:53:46.235Z,94.00
2022-11-27T02:58:45.114Z,93.90
2022-11-27T03:03:44.042Z,93.90
2022-11-27T03:08:43.022Z,93.80
2022-11-27T03:13:42.055Z,93.80
2022-11-27T03:18:41.058Z,93.80
2022-11-27T03:23:39.986Z,93.80
2022-11-27T03:28:39.135Z,93.80
2022-11-27T03:33:38.067Z,93.90
2022-11-27T03:38:37.140Z,93.90
2022-11-27T03:43:36.159Z,94.00
2022-11-27T03:48:35.124Z,94.10
2022-11-27T03:53:34.034Z,94.10
2022-11-27T03:58:33.165Z,94.00
2022-11-27T04:03:32.212Z,94.00
2022-11-27T04:08:34.052Z,94.10
2022-11-27T04:13:33.174Z,94.00
2022-11-27T04:18:32.048Z,94.00
2022-11-27T04:23:31.089Z,94.00
2022-11-27T04:28:30.248Z,93.90
2022-11-27T04:33:29.409Z,93.90
2022-11-27T04:38:28.119Z,93.90
2022-11-27T04:43:27.146Z,93.90
2022-11-27T04:48:26.138Z,93.90
2022-11-27T04:53:25.157Z,93.80
2022-11-27T04:58:24.188Z,93.80
2022-11-27T05:03:23.145Z,93.80
2022-11-27T05:08:22.436Z,93.60
2022-11-27T05:13:23.276Z,93.70
2022-11-27T05:18:22.208Z,93.50
2022-11-27T05:23:21.309Z,93.50
2022-11-27T05:28:25.098Z,93.60
2022-11-27T05:33:21.131Z,93.40
2022-11-27T05:38:20.194Z,93.40
2022-11-27T05:43:19.141Z,93.30
2022-11-27T05:48:18.183Z,93.10
2022-11-27T05:53:17.201Z,93.10
2022-11-27T05:58:16.171Z,93.10
2022-11-27T06:03:15.281Z,93.10
2022-11-27T06:08:14.317Z,93.20
2022-11-27T06:13:13.212Z,93.10
2022-11-27T06:18:13.012Z,93.10
2022-11-27T06:23:12.176Z,93.00
2022-11-27T06:28:11.076Z,93.10
2022-11-27T06:33:10.184Z,93.10
2022-11-27T06:38:09.135Z,93.10
2022-11-27T06:43:08.306Z,93.00
2022-11-27T06:48:07.330Z,93.00
2022-11-27T06:53:06.331Z,93.00
2022-11-27T06:58:05.142Z,93.00
2022-11-27T07:03:04.171Z,93.00
2022-11-27T07:08:03.214Z,92.90
2022-11-27T07:13:02.309Z,93.00
2022-11-27T07:18:01.081Z,93.00
2022-11-27T07:23:00.133Z,93.00
2022-11-27T07:27:59.302Z,93.10
2022-11-27T07:32:58.205Z,93.00
2022-11-27T07:37:57.284Z,93.00
2022-11-27T07:42:56.281Z,93.00
2022-11-27T07:47:55.260Z,93.00
2022-11-27T07:52:54.274Z,92.90
2022-11-27T07:57:53.273Z,92.90
2022-11-27T08:02:52.272Z,92.90
2022-11-27T08:07:51.230Z,92.80
2022-11-27T08:12:50.382Z,92.70
2022-11-27T08:17:49.452Z,92.60
2022-11-27T08:22:48.328Z,92.40
2022-11-27T08:27:48.032Z,92.50
2022-11-27T08:32:47.173Z,92.20
2022-11-27T08:37:46.188Z,92.20
2022-11-27T08:42:45.294Z,91.90
2022-11-27T08:47:44.207Z,91.50
2022-11-27T08:52:43.182Z,91.40
2022-11-27T08:57:42.229Z,91.10
2022-11-27T09:02:41.338Z,91.10
2022-11-27T09:07:41.012Z,91.10
2022-11-27T09:12:43.390Z,90.80
2022-11-27T09:17:41.409Z,91.00
2022-11-27T09:22:40.350Z,89.60
2022-11-27T09:27:39.386Z,90.00
2022-11-27T09:32:38.106Z,89.60
2022-11-27T09:37:37.427Z,89.20
2022-11-27T09:42:36.442Z,88.80
2022-11-27T09:47:39.810Z,88.30
2022-11-27T09:52:36.218Z,87.80
2022-11-27T09:57:35.288Z,87.40
2022-11-27T10:02:34.383Z,87.30
2022-11-27T10:07:33.518Z,86.50
2022-11-27T10:12:32.334Z,86.10
2022-11-27T10:17:31.446Z,85.80
2022-11-27T10:22:30.346Z,84.40
2022-11-27T10:27:29.351Z,85.30
2022-11-27T10:32:54.182Z,85.30
2022-11-27T10:37:30.123Z,84.30
2022-11-27T10:42:29.380Z,84.00
2022-11-27T10:47:32.263Z,84.40
2022-11-27T10:52:29.326Z,82.60
2022-11-27T10:57:28.397Z,82.80
2022-11-27T11:02:27.408Z,82.90
2022-11-27T11:07:26.457Z,81.30
2022-11-27T11:12:25.371Z,82.10
2022-11-27T11:17:24.508Z,82.30
2022-11-27T11:22:23.190Z,82.10
2022-11-27T11:27:22.402Z,80.60
2022-11-27T11:32:21.289Z,81.40
2022-11-27T11:37:20.274Z,81.80
2022-11-27T11:42:19.432Z,80.80
2022-11-27T11:47:18.707Z,80.50
2022-11-27T11:52:20.010Z,79.30
2022-11-27T11:57:19.233Z,80.00
2022-11-27T12:02:18.427Z,79.80
2022-11-27T12:07:17.406Z,80.00
2022-11-27T12:12:16.411Z,79.60
2022-11-27T12:17:15.384Z,79.70
2022-11-27T12:22:14.454Z,79.20
2022-11-27T12:27:13.505Z,78.60
2022-11-27T12:32:12.563Z,79.00
2022-11-27T12:37:14.060Z,78.40
2022-11-27T12:42:12.488Z,78.40
2022-11-27T12:47:11.217Z,77.40
2022-11-27T12:52:10.611Z,77.70
2022-11-27T12:57:09.509Z,77.60
2022-11-27T13:02:08.563Z,77.00
2022-11-27T13:07:07.334Z,77.30
2022-11-27T13:12:06.241Z,76.90
2022-11-27T13:17:05.434Z,76.20
2022-11-27T13:22:04.372Z,76.90
2022-11-27T13:27:04.293Z,75.90
2022-11-27T13:32:03.578Z,76.40
2022-11-27T13:37:02.454Z,76.10
2022-11-27T13:42:01.463Z,75.70
2022-11-27T13:47:00.473Z,75.80
2022-11-27T13:51:59.467Z,76.30
2022-11-27T13:56:58.502Z,75.70
2022-11-27T14:01:58.173Z,75.60
2022-11-27T14:06:57.613Z,75.50
2022-11-27T14:11:56.539Z,75.10
2022-11-27T14:16:56.214Z,75.40
2022-11-27T14:21:55.385Z,75.50
2022-11-27T14:26:54.356Z,75.40
2022-11-27T14:31:53.297Z,75.50
2022-11-27T14:36:52.405Z,75.40
2022-11-27T14:41:51.457Z,75.90
2022-11-27T14:46:50.492Z,76.10
2022-11-27T14:51:50.126Z,76.50
2022-11-27T14:56:49.581Z,76.80
2022-11-27T15:01:48.526Z,77.20
2022-11-27T15:06:47.481Z,77.40
2022-11-27T15:11:56.327Z,77.30
2022-11-27T15:16:47.661Z,77.60
2022-11-27T15:21:46.557Z,77.60
2022-11-27T15:26:45.685Z,78.00
2022-11-27T15:31:44.647Z,78.30
2022-11-27T15:36:43.745Z,78.60
2022-11-27T15:41:43.650Z,79.30
2022-11-27T15:46:42.461Z,79.90
2022-11-27T15:51:41.689Z,80.30
2022-11-27T15:56:40.444Z,80.90
2022-11-27T16:01:39.632Z,80.70
2022-11-27T16:06:38.489Z,81.10
2022-11-27T16:11:37.625Z,80.80
2022-11-27T16:16:36.675Z,81.50
2022-11-27T16:21:35.526Z,81.60
2022-11-27T16:26:34.537Z,81.60
2022-11-27T16:31:33.569Z,81.60
2022-11-27T16:36:32.672Z,81.40
2022-11-27T16:41:31.925Z,81.50
2022-11-27T16:46:31.297Z,81.20
2022-11-27T16:51:32.680Z,81.20
2022-11-27T16:56:31.672Z,81.70
2022-11-27T17:01:30.557Z,82.00
2022-11-27T17:06:29.501Z,81.80
2022-11-27T17:11:28.493Z,81.30
2022-11-27T17:16:27.619Z,81.50
2022-11-27T17:21:28.514Z,81.90
2022-11-27T17:26:27.590Z,81.50
2022-11-27T17:31:26.729Z,81.50
2022-11-27T17:36:25.928Z,81.30
2022-11-27T17:41:25.913Z,81.20
2022-11-27T17:46:25.151Z,80.80
2022-11-27T17:51:25.092Z,81.10
2022-11-27T17:56:24.527Z,80.80
2022-11-27T18:01:23.985Z,80.30
2022-11-27T18:06:23.380Z,80.50
2022-11-27T18:11:25.967Z,80.30
2022-11-27T18:16:24.770Z,80.60
2022-11-27T18:21:26.154Z,80.60
2022-11-27T18:26:45.518Z,80.60
2022-11-27T18:31:26.729Z,80.70
2022-11-27T18:36:25.618Z,80.50
2022-11-27T18:41:24.759Z,80.90
2022-11-27T18:46:26.768Z,82.10
2022-11-27T18:51:26.437Z,82.20
2022-11-27T18:56:26.481Z,82.50
2022-11-27T19:01:25.977Z,83.00
2022-11-27T19:06:25.386Z,83.40
2022-11-27T19:11:24.640Z,83.50
2022-11-27T19:16:24.076Z,83.30
2022-11-27T19:21:23.788Z,83.50
2022-11-27T19:26:22.519Z,83.70
2022-11-27T19:31:22.252Z,83.50
2022-11-27T19:36:21.536Z,83.60
2022-11-27T19:41:20.546Z,83.80
2022-11-27T19:46:19.980Z,83.90
2022-11-27T19:51:19.185Z,83.80
2022-11-27T19:56:19.923Z,83.60
2022-11-27T20:01:20.635Z,83.60
2022-11-27T20:06:19.934Z,83.50
2022-11-27T20:11:18.719Z,83.30
2022-11-27T20:16:17.594Z,83.20
2022-11-27T20:21:16.946Z,83.50
2022-11-27T20:26:16.254Z,83.10
2022-11-27T20:31:15.913Z,82.90
2022-11-27T20:36:14.566Z,83.10
2022-11-27T20:41:13.678Z,83.10
2022-11-27T20:46:12.987Z,83.20
2022-11-27T20:51:13.212Z,83.20
2022-11-27T20:56:13.077Z,83.10
2022-11-27T21:01:12.057Z,83.10
2022-11-27T21:06:10.837Z,83.20
2022-11-27T21:11:09.987Z,83.10
2022-11-27T21:16:09.028Z,83.40
2022-11-27T21:21:07.999Z,83.50
2022-11-27T21:26:06.761Z,83.80
2022-11-27T21:31:05.874Z,84.00
2022-11-27T21:36:04.802Z,84.30
2022-11-27T21:41:03.837Z,84.80
2022-11-27T21:46:02.662Z,84.80
2022-11-27T21:51:01.774Z,85.00
2022-11-27T21:56:00.923Z,85.20
2022-11-27T22:00:59.583Z,85.40
2022-11-27T22:05:59.333Z,86.20
2022-11-27T22:10:58.704Z,86.20
2022-11-27T22:15:57.692Z,86.20
2022-11-27T22:20:56.603Z,86.50
2022-11-27T22:25:56.619Z,86.90
2022-11-27T22:30:55.967Z,87.20
2022-11-27T22:35:54.607Z,89.10
2022-11-27T22:40:54.060Z,90.10
2022-11-27T22:45:52.884Z,90.20
2022-11-27T22:50:51.890Z,90.70
2022-11-27T22:55:51.198Z,91.40
2022-11-27T23:00:49.927Z,91.70
2022-11-27T23:05:48.731Z,92.50
2022-11-27T23:10:47.728Z,92.60
2022-11-27T23:15:46.650Z,92.90
2022-11-27T23:20:45.666Z,93.00
2022-11-27T23:25:44.651Z,93.10
2022-11-27T23:30:43.540Z,93.20
2022-11-27T23:35:42.713Z,93.80
2022-11-27T23:40:41.725Z,93.90
2022-11-27T23:45:40.753Z,94.00
2022-11-27T23:50:39.864Z,94.10
2022-11-27T23:55:38.726Z,94.40
